createdAt,value
2018-04-26T00:02:25.598Z,14.06
2018-04-26T00:04:53.851Z,14.06
2018-04-26T00:07:22.148Z,13.96
2018-04-26T00:09:50.406Z,13.93
2018-04-26T00:12:18.712Z,13.91
2018-04-26T00:14:46.959Z,13.77
2018-04-26T00:17:15.275Z,13.60
2018-04-26T00:19:43.526Z,13.70
2018-04-26T00:22:11.824Z,13.73
2018-04-26T00:24:40.070Z,13.69
2018-04-26T00:27:08.375Z,13.67
2018-04-26T00:29:36.604Z,13.64
2018-04-26T00:32:04.880Z,13.65
2018-04-26T00:34:33.149Z,13.58
2018-04-26T00:37:01.434Z,13.51
2018-04-26T00:39:29.697Z,13.51
2018-04-26T00:41:57.993Z,13.49
2018-04-26T00:44:26.275Z,13.54
2018-04-26T00:46:54.555Z,13.49
2018-04-26T00:49:22.879Z,13.48
2018-04-26T00:52:01.146Z,13.49
2018-04-26T00:54:30.315Z,13.38
2018-04-26T00:56:58.578Z,13.36
2018-04-26T00:59:26.951Z,13.33
2018-04-26T01:01:55.199Z,13.19
2018-04-26T01:04:23.606Z,13.26
2018-04-26T01:06:51.854Z,13.37
2018-04-26T01:09:20.140Z,13.43
2018-04-26T01:11:48.431Z,13.36
2018-04-26T01:14:16.719Z,13.35
2018-04-26T01:16:45.003Z,13.28
2018-04-26T01:19:13.305Z,13.23
2018-04-26T01:21:41.555Z,13.18
2018-04-26T01:24:09.899Z,13.07
2018-04-26T01:26:38.182Z,13.07
2018-04-26T01:29:06.454Z,12.98
2018-04-26T01:31:34.734Z,12.97
2018-04-26T01:34:03.001Z,13.05
2018-04-26T01:36:43.396Z,13.01
2018-04-26T01:39:11.648Z,12.96
2018-04-26T01:41:39.956Z,12.96
2018-04-26T01:44:08.232Z,12.92
2018-04-26T01:46:36.546Z,12.86
2018-04-26T01:49:04.834Z,12.83
2018-04-26T01:51:33.110Z,12.85
2018-04-26T01:54:01.417Z,12.87
2018-04-26T01:56:29.690Z,12.91
2018-04-26T01:58:57.962Z,12.88
2018-04-26T02:01:26.224Z,12.73
2018-04-26T02:03:54.494Z,12.67
2018-04-26T02:06:22.790Z,12.64
2018-04-26T02:08:51.037Z,12.61
2018-04-26T02:11:19.326Z,12.52
2018-04-26T02:13:47.666Z,12.50
2018-04-26T02:16:15.914Z,12.55
2018-04-26T02:18:44.195Z,12.44
2018-04-26T02:21:12.457Z,12.45
2018-04-26T02:23:41.554Z,12.42
2018-04-26T02:26:09.826Z,12.41
2018-04-26T02:28:38.105Z,12.43
2018-04-26T02:31:06.358Z,12.36
2018-04-26T02:33:34.629Z,12.35
2018-04-26T02:36:02.898Z,12.38
2018-04-26T02:38:31.203Z,12.44
2018-04-26T02:40:59.451Z,12.42
2018-04-26T02:43:27.754Z,12.35
2018-04-26T02:45:56.010Z,12.27
2018-04-26T02:48:24.377Z,12.16
2018-04-26T02:50:52.643Z,12.23
2018-04-26T02:53:20.933Z,12.14
2018-04-26T02:55:49.192Z,12.09
2018-04-26T02:58:17.539Z,12.16
2018-04-26T03:00:45.783Z,12.21
2018-04-26T03:03:14.066Z,12.09
2018-04-26T03:05:42.381Z,12.14
2018-04-26T03:08:10.699Z,11.98
2018-04-26T03:10:38.959Z,11.94
2018-04-26T03:13:07.250Z,11.84
2018-04-26T03:15:35.520Z,11.81
2018-04-26T03:18:03.877Z,11.84
2018-04-26T03:20:32.143Z,11.82
2018-04-26T03:23:00.431Z,11.80
2018-04-26T03:25:28.721Z,11.81
2018-04-26T03:27:57.001Z,11.96
2018-04-26T03:30:25.296Z,11.91
2018-04-26T03:32:53.579Z,11.78
2018-04-26T03:35:22.019Z,11.87
2018-04-26T03:37:50.281Z,11.84
2018-04-26T03:40:18.600Z,11.84
2018-04-26T03:42:46.856Z,11.79
2018-04-26T03:45:15.149Z,11.84
2018-04-26T03:47:43.394Z,11.77
2018-04-26T03:50:11.678Z,11.63
2018-04-26T03:52:39.970Z,11.64
2018-04-26T03:55:08.239Z,11.69
2018-04-26T03:57:36.526Z,11.75
2018-04-26T04:00:16.507Z,11.65
2018-04-26T04:02:56.724Z,11.61
2018-04-26T04:05:36.686Z,11.54
2018-04-26T04:08:04.995Z,11.50
2018-04-26T04:10:33.246Z,11.41
2018-04-26T04:13:01.518Z,11.50
2018-04-26T04:15:29.766Z,11.41
2018-04-26T04:17:58.050Z,11.51
2018-04-26T04:20:26.322Z,11.53
2018-04-26T04:22:54.617Z,11.49
2018-04-26T04:25:22.890Z,11.53
2018-04-26T04:27:51.208Z,11.44
2018-04-26T04:30:19.473Z,11.36
2018-04-26T04:32:47.727Z,11.29
2018-04-26T04:35:16.020Z,11.35
2018-04-26T04:37:44.302Z,11.46
2018-04-26T04:40:12.582Z,11.42
2018-04-26T04:42:40.873Z,11.41
2018-04-26T04:45:09.155Z,11.51
2018-04-26T04:47:37.516Z,11.62
2018-04-26T04:50:05.795Z,11.69
2018-04-26T04:52:34.105Z,11.69
2018-04-26T04:55:02.381Z,11.60
2018-04-26T04:57:30.658Z,11.59
2018-04-26T04:59:59.780Z,11.66
2018-04-26T05:02:28.034Z,11.67
2018-04-26T05:04:56.310Z,11.64
2018-04-26T05:07:24.727Z,11.63
2018-04-26T05:09:53.242Z,11.56
2018-04-26T05:12:21.494Z,11.53
2018-04-26T05:14:49.809Z,11.40
2018-04-26T05:17:19.091Z,11.44
2018-04-26T05:19:47.440Z,11.43
2018-04-26T05:22:15.642Z,11.52
2018-04-26T05:24:43.948Z,11.54
2018-04-26T05:27:12.234Z,11.59
2018-04-26T05:29:40.556Z,11.59
2018-04-26T05:32:08.857Z,11.69
2018-04-26T05:34:37.151Z,11.72
2018-04-26T05:37:05.434Z,11.71
2018-04-26T05:39:33.857Z,11.60
2018-04-26T05:42:02.417Z,11.66
2018-04-26T05:44:30.725Z,11.62
2018-04-26T05:46:59.006Z,11.55
2018-04-26T05:49:27.347Z,11.62
2018-04-26T05:51:55.664Z,11.69
2018-04-26T05:54:23.918Z,11.68
2018-04-26T05:56:52.215Z,11.68
2018-04-26T05:59:20.494Z,11.67
2018-04-26T06:01:48.781Z,11.78
2018-04-26T06:04:17.077Z,11.72
2018-04-26T06:06:45.387Z,11.71
2018-04-26T06:11:48.112Z,11.48
2018-04-26T06:14:16.395Z,11.40
2018-04-26T06:16:44.794Z,11.51
2018-04-26T06:19:13.054Z,11.63
2018-04-26T06:21:41.359Z,11.43
2018-04-26T06:24:09.661Z,11.46
2018-04-26T06:26:38.016Z,11.35
2018-04-26T06:29:06.256Z,11.42
2018-04-26T06:31:34.506Z,11.47
2018-04-26T06:34:02.805Z,11.62
2018-04-26T06:36:31.086Z,11.67
2018-04-26T06:38:59.434Z,11.69
2018-04-26T06:41:27.882Z,11.77
2018-04-26T06:43:56.197Z,11.81
2018-04-26T06:46:24.477Z,11.66
2018-04-26T06:48:52.787Z,11.42
2018-04-26T06:51:21.019Z,11.49
2018-04-26T06:53:49.290Z,11.53
2018-04-26T06:56:17.579Z,11.62
2018-04-26T06:58:45.839Z,11.77
2018-04-26T07:01:14.093Z,11.90
2018-04-26T07:03:42.387Z,11.68
2018-04-26T07:06:10.648Z,11.67
2018-04-26T07:08:38.962Z,11.87
2018-04-26T07:11:07.195Z,11.93
2018-04-26T07:13:35.459Z,12.24
2018-04-26T07:16:03.740Z,12.21
2018-04-26T07:18:32.008Z,12.24
2018-04-26T07:21:00.403Z,12.28
2018-04-26T07:23:28.679Z,12.23
2018-04-26T07:25:57.144Z,12.12
2018-04-26T07:28:25.398Z,12.25
2018-04-26T07:30:53.674Z,12.20
2018-04-26T07:33:21.970Z,12.31
2018-04-26T07:35:50.230Z,12.37
2018-04-26T07:38:18.531Z,12.36
2018-04-26T07:40:46.944Z,12.45
2018-04-26T07:43:15.206Z,12.49
2018-04-26T07:45:43.499Z,12.23
2018-04-26T07:48:11.745Z,12.40
2018-04-26T07:50:40.032Z,12.50
2018-04-26T07:53:08.367Z,12.41
2018-04-26T07:55:36.604Z,12.00
2018-04-26T07:58:04.849Z,12.03
2018-04-26T08:00:33.119Z,12.27
2018-04-26T08:03:01.374Z,12.40
2018-04-26T08:05:29.657Z,12.39
2018-04-26T08:07:57.978Z,12.55
2018-04-26T08:10:26.238Z,12.91
2018-04-26T08:12:54.566Z,12.89
2018-04-26T08:15:22.792Z,12.98
2018-04-26T08:17:51.074Z,13.14
2018-04-26T08:20:19.343Z,13.13
2018-04-26T08:22:47.672Z,13.23
2018-04-26T08:25:15.926Z,13.14
2018-04-26T08:27:44.354Z,13.05
2018-04-26T08:30:12.649Z,12.83
2018-04-26T08:32:40.958Z,12.61
2018-04-26T08:35:09.233Z,12.70
2018-04-26T08:37:37.506Z,13.06
2018-04-26T08:40:06.122Z,13.19
2018-04-26T08:42:34.399Z,13.43
2018-04-26T08:45:03.282Z,13.35
2018-04-26T08:47:31.628Z,13.50
2018-04-26T08:49:59.901Z,13.63
2018-04-26T08:52:28.304Z,13.63
2018-04-26T08:54:56.450Z,13.52
2018-04-26T08:57:24.707Z,13.71
2018-04-26T08:59:52.986Z,13.56
2018-04-26T09:02:21.250Z,13.48
2018-04-26T09:04:49.544Z,13.55
2018-04-26T09:07:17.794Z,13.50
2018-04-26T09:09:46.087Z,13.73
2018-04-26T09:12:14.429Z,13.83
2018-04-26T09:14:42.723Z,14.00
2018-04-26T09:17:11.938Z,13.92
2018-04-26T09:19:40.230Z,13.67
2018-04-26T09:22:08.593Z,13.70
2018-04-26T09:24:36.928Z,13.77
2018-04-26T09:27:05.228Z,13.89
2018-04-26T09:29:33.494Z,13.91
2018-04-26T09:32:02.134Z,13.87
2018-04-26T09:34:31.539Z,13.73
2018-04-26T09:37:00.113Z,13.71
2018-04-26T09:39:28.429Z,13.81
2018-04-26T09:41:56.715Z,14.22
2018-04-26T09:44:25.146Z,14.55
2018-04-26T09:46:53.368Z,14.42
2018-04-26T09:49:21.648Z,14.41
2018-04-26T09:51:49.926Z,14.40
2018-04-26T09:54:18.254Z,14.55
2018-04-26T09:56:46.567Z,14.57
2018-04-26T09:59:14.855Z,14.59
2018-04-26T10:01:43.346Z,14.74
2018-04-26T10:04:14.517Z,14.71
2018-04-26T10:06:48.462Z,14.66
2018-04-26T10:09:16.842Z,14.56
2018-04-26T10:11:45.144Z,14.49
2018-04-26T10:14:13.434Z,14.40
2018-04-26T10:16:41.683Z,14.44
2018-04-26T10:19:09.983Z,14.55
2018-04-26T10:21:38.293Z,14.51
2018-04-26T10:24:06.658Z,14.51
2018-04-26T10:26:34.992Z,14.62
2018-04-26T10:29:03.270Z,14.64
2018-04-26T10:31:31.569Z,14.63
2018-04-26T10:33:59.919Z,14.36
2018-04-26T10:36:28.186Z,14.40
2018-04-26T10:38:56.736Z,14.46
2018-04-26T10:41:24.978Z,14.44
2018-04-26T10:43:53.263Z,14.91
2018-04-26T10:46:21.527Z,15.36
2018-04-26T10:48:49.836Z,15.63
2018-04-26T10:51:18.094Z,15.57
2018-04-26T10:53:46.386Z,15.58
2018-04-26T10:56:14.659Z,15.92
2018-04-26T10:58:43.213Z,16.09
2018-04-26T11:01:11.538Z,15.98
2018-04-26T11:03:40.898Z,15.89
2018-04-26T11:06:09.198Z,15.88
2018-04-26T11:08:37.453Z,15.90
2018-04-26T11:11:06.010Z,15.63
2018-04-26T11:13:34.270Z,15.45
2018-04-26T11:16:02.561Z,15.45
2018-04-26T11:18:31.503Z,15.66
2018-04-26T11:20:59.778Z,15.75
2018-04-26T11:23:28.059Z,15.82
2018-04-26T11:25:56.334Z,15.95
2018-04-26T11:28:24.596Z,15.77
2018-04-26T11:30:52.988Z,15.50
2018-04-26T11:33:21.233Z,15.58
2018-04-26T11:35:49.511Z,15.88
2018-04-26T11:38:17.913Z,16.43
2018-04-26T11:40:46.325Z,16.61
2018-04-26T11:43:14.647Z,16.48
2018-04-26T11:45:43.018Z,16.72
2018-04-26T11:48:11.329Z,16.67
2018-04-26T11:50:39.662Z,16.82
2018-04-26T11:53:07.915Z,16.91
2018-04-26T11:55:36.185Z,16.67
2018-04-26T11:58:04.866Z,16.95
2018-04-26T12:00:33.303Z,17.25
2018-04-26T12:03:02.049Z,17.22
2018-04-26T12:05:30.425Z,17.03
2018-04-26T12:07:59.297Z,16.85
2018-04-26T12:10:27.702Z,16.74
2018-04-26T12:12:55.962Z,16.48
2018-04-26T12:15:24.214Z,16.60
2018-04-26T12:17:52.519Z,16.50
2018-04-26T12:20:20.786Z,16.19
2018-04-26T12:22:49.080Z,15.94
2018-04-26T12:25:17.323Z,15.77
2018-04-26T12:27:45.766Z,15.98
2018-04-26T12:30:14.148Z,16.09
2018-04-26T12:32:43.717Z,16.30
2018-04-26T12:35:12.481Z,16.72
2018-04-26T12:37:40.780Z,17.12
2018-04-26T12:40:09.083Z,17.28
2018-04-26T12:42:37.376Z,17.54
2018-04-26T12:45:05.643Z,17.88
2018-04-26T12:47:33.932Z,17.92
2018-04-26T12:50:02.538Z,17.85
2018-04-26T12:52:30.830Z,18.08
2018-04-26T12:54:59.100Z,18.17
2018-04-26T12:57:27.369Z,18.07
2018-04-26T12:59:55.625Z,18.02
2018-04-26T13:02:24.122Z,17.98
2018-04-26T13:04:52.415Z,17.97
2018-04-26T13:07:20.676Z,18.13
2018-04-26T13:09:49.015Z,18.10
2018-04-26T13:12:17.388Z,18.33
2018-04-26T13:14:45.690Z,18.82
2018-04-26T13:17:14.010Z,18.93
2018-04-26T13:19:42.304Z,19.03
2018-04-26T13:22:10.662Z,18.72
2018-04-26T13:24:38.948Z,18.38
2018-04-26T13:27:07.296Z,18.27
2018-04-26T13:29:35.704Z,18.57
2018-04-26T13:32:03.981Z,18.60
2018-04-26T13:34:32.314Z,18.40
2018-04-26T13:37:02.008Z,18.30
2018-04-26T13:39:30.292Z,18.21
2018-04-26T13:41:58.592Z,18.04
2018-04-26T13:44:28.333Z,17.73
2018-04-26T13:46:56.641Z,17.79
2018-04-26T13:49:24.945Z,17.80
2018-04-26T13:51:53.276Z,17.81
2018-04-26T13:54:22.502Z,18.09
2018-04-26T13:56:50.858Z,18.23
2018-04-26T13:59:19.105Z,17.97
2018-04-26T14:01:47.411Z,17.48
2018-04-26T14:04:15.693Z,17.25
2018-04-26T14:06:44.038Z,17.36
2018-04-26T14:09:13.152Z,17.67
2018-04-26T14:11:41.976Z,17.66
2018-04-26T14:14:10.512Z,18.01
2018-04-26T14:16:39.277Z,17.98
2018-04-26T14:19:07.586Z,18.01
2018-04-26T14:21:35.830Z,18.09
2018-04-26T14:24:04.344Z,18.11
2018-04-26T14:26:33.085Z,18.49
2018-04-26T14:29:01.409Z,18.76
2018-04-26T14:31:29.661Z,18.61
2018-04-26T14:33:57.978Z,18.49
2018-04-26T14:36:26.290Z,18.50
2018-04-26T14:38:54.662Z,19.17
2018-04-26T14:41:24.037Z,19.52
2018-04-26T14:43:53.212Z,19.55
2018-04-26T14:46:24.022Z,19.82
2018-04-26T14:48:52.347Z,20.21
2018-04-26T14:51:20.757Z,20.37
2018-04-26T14:53:50.083Z,20.58
2018-04-26T14:56:18.447Z,20.59
2018-04-26T14:58:47.610Z,20.55
2018-04-26T15:01:16.016Z,20.23
2018-04-26T15:03:44.343Z,19.26
2018-04-26T15:06:12.699Z,19.06
2018-04-26T15:08:40.986Z,19.00
2018-04-26T15:11:09.351Z,18.71
2018-04-26T15:13:37.599Z,18.41
2018-04-26T15:16:05.895Z,18.02
2018-04-26T15:18:34.242Z,18.47
2018-04-26T15:21:02.531Z,18.46
2018-04-26T15:23:31.004Z,19.59
2018-04-26T15:25:59.257Z,20.07
2018-04-26T15:28:27.589Z,21.01
2018-04-26T15:30:55.931Z,21.44
2018-04-26T15:33:24.330Z,21.92
2018-04-26T15:35:53.777Z,21.88
2018-04-26T15:38:22.049Z,22.08
2018-04-26T15:40:51.618Z,21.77
2018-04-26T15:43:20.877Z,21.22
2018-04-26T15:45:49.126Z,20.36
2018-04-26T15:48:17.418Z,19.64
2018-04-26T15:50:55.686Z,19.51
2018-04-26T15:53:35.736Z,19.48
2018-04-26T15:56:15.739Z,19.74
2018-04-26T16:02:26.874Z,20.79
2018-04-26T16:05:12.722Z,20.93
2018-04-26T16:07:58.427Z,21.12
2018-04-26T16:10:44.183Z,21.89
2018-04-26T16:13:29.976Z,22.57
2018-04-26T16:19:34.246Z,22.47
2018-04-26T16:22:19.855Z,22.45
2018-04-26T16:24:59.958Z,22.45
2018-04-26T16:27:44.150Z,23.05
2018-04-26T16:30:24.123Z,23.39
2018-04-26T16:33:05.218Z,22.94
2018-04-26T16:35:45.880Z,23.10
2018-04-26T16:38:26.027Z,23.42
2018-04-26T16:40:54.316Z,23.60
2018-04-26T16:43:22.620Z,23.94
2018-04-26T16:45:51.144Z,23.74
2018-04-26T16:48:19.585Z,23.44
2018-04-26T16:50:47.856Z,22.99
2018-04-26T16:53:16.143Z,23.11
2018-04-26T16:55:44.498Z,22.80
2018-04-26T16:58:12.789Z,21.80
2018-04-26T17:00:41.075Z,21.17
2018-04-26T17:03:09.337Z,20.57
2018-04-26T17:05:37.727Z,20.12
2018-04-26T17:08:06.058Z,19.68
2018-04-26T17:10:34.331Z,19.28
2018-04-26T17:13:02.587Z,19.19
2018-04-26T17:15:30.869Z,18.96
2018-04-26T17:17:59.151Z,18.82
2018-04-26T17:20:27.424Z,18.91
2018-04-26T17:22:55.688Z,18.59
2018-04-26T17:25:23.990Z,18.63
2018-04-26T17:27:52.354Z,18.65
2018-04-26T17:30:20.668Z,18.61
2018-04-26T17:32:49.071Z,18.21
2018-04-26T17:35:17.738Z,18.18
2018-04-26T17:37:46.219Z,18.05
2018-04-26T17:40:14.577Z,18.04
2018-04-26T17:42:42.794Z,18.20
2018-04-26T17:45:11.118Z,18.07
2018-04-26T17:47:39.364Z,17.89
2018-04-26T17:50:07.641Z,18.07
2018-04-26T17:52:35.912Z,18.02
2018-04-26T17:55:05.187Z,17.88
2018-04-26T17:57:33.496Z,17.84
2018-04-26T18:00:01.758Z,17.80
2018-04-26T18:02:30.021Z,17.76
2018-04-26T18:04:58.307Z,17.78
2018-04-26T18:07:27.528Z,17.64
2018-04-26T18:09:55.886Z,17.55
2018-04-26T18:12:24.126Z,17.41
2018-04-26T18:14:52.437Z,17.38
2018-04-26T18:17:20.724Z,17.47
2018-04-26T18:19:49.002Z,17.37
2018-04-26T18:22:17.307Z,17.17
2018-04-26T18:24:45.633Z,17.19
2018-04-26T18:27:13.893Z,17.07
2018-04-26T18:29:42.168Z,16.88
2018-04-26T18:32:11.334Z,17.04
2018-04-26T18:34:39.571Z,17.06
2018-04-26T18:37:07.834Z,17.07
2018-04-26T18:39:36.151Z,17.05
2018-04-26T18:42:04.394Z,17.09
2018-04-26T18:44:32.658Z,17.03
2018-04-26T18:47:00.939Z,16.77
2018-04-26T18:49:29.287Z,16.73
2018-04-26T18:51:57.554Z,16.70
2018-04-26T18:54:25.843Z,16.66
2018-04-26T18:56:54.112Z,16.59
2018-04-26T18:59:22.413Z,16.50
2018-04-26T19:01:50.668Z,16.42
2018-04-26T19:04:19.942Z,16.31
2018-04-26T19:06:48.202Z,16.53
2018-04-26T19:09:16.574Z,16.53
2018-04-26T19:11:45.233Z,16.49
2018-04-26T19:14:13.537Z,16.22
2018-04-26T19:16:41.951Z,16.22
2018-04-26T19:19:10.262Z,16.13
2018-04-26T19:21:38.549Z,16.17
2018-04-26T19:24:06.855Z,16.27
2018-04-26T19:26:35.135Z,16.03
2018-04-26T19:29:03.425Z,15.89
2018-04-26T19:31:31.700Z,15.91
2018-04-26T19:34:00.054Z,15.83
2018-04-26T19:36:28.295Z,15.86
2018-04-26T19:38:56.805Z,15.94
2018-04-26T19:41:25.133Z,16.07
2018-04-26T19:43:53.412Z,16.04
2018-04-26T19:46:21.694Z,15.93
2018-04-26T19:48:49.980Z,15.97
2018-04-26T19:51:18.303Z,15.86
2018-04-26T19:53:46.616Z,15.73
2018-04-26T19:56:14.903Z,15.68
2018-04-26T19:58:43.191Z,15.66
2018-04-26T20:01:11.550Z,15.40
2018-04-26T20:03:42.733Z,15.13
2018-04-26T20:06:11.102Z,14.98
2018-04-26T20:08:39.326Z,14.84
2018-04-26T20:11:07.668Z,14.84
2018-04-26T20:13:35.936Z,14.77
2018-04-26T20:16:04.216Z,14.73
2018-04-26T20:18:32.938Z,14.67
2018-04-26T20:21:01.226Z,14.69
2018-04-26T20:23:29.487Z,14.60
2018-04-26T20:25:57.782Z,14.61
2018-04-26T20:28:26.079Z,14.58
2018-04-26T20:30:54.367Z,14.58
2018-04-26T20:33:22.683Z,14.46
2018-04-26T20:35:50.997Z,14.42
2018-04-26T20:38:19.270Z,14.41
2018-04-26T20:40:47.632Z,14.42
2018-04-26T20:43:16.121Z,14.32
2018-04-26T20:45:44.392Z,14.30
2018-04-26T20:48:13.487Z,14.25
2018-04-26T20:50:41.805Z,14.16
2018-04-26T20:53:10.978Z,14.19
2018-04-26T20:55:39.212Z,14.13
2018-04-26T20:58:07.494Z,14.05
2018-04-26T21:00:35.763Z,13.93
2018-04-26T21:03:04.046Z,13.85
2018-04-26T21:05:32.320Z,13.92
2018-04-26T21:08:00.656Z,13.80
2018-04-26T21:10:29.521Z,13.78
2018-04-26T21:12:58.713Z,13.74
2018-04-26T21:15:27.012Z,13.80
2018-04-26T21:17:55.306Z,13.85
2018-04-26T21:20:23.575Z,13.65
2018-04-26T21:22:51.943Z,13.63
2018-04-26T21:25:21.111Z,13.41
2018-04-26T21:27:49.405Z,13.25
2018-04-26T21:30:17.666Z,13.11
2018-04-26T21:32:45.938Z,12.99
2018-04-26T21:35:14.236Z,12.88
2018-04-26T21:37:42.558Z,12.69
2018-04-26T21:40:10.867Z,12.58
2018-04-26T21:42:39.146Z,12.61
2018-04-26T21:45:07.611Z,12.63
2018-04-26T21:47:35.957Z,12.65
2018-04-26T21:50:09.811Z,12.69
2018-04-26T21:52:43.755Z,12.51
2018-04-26T21:55:17.679Z,12.45
2018-04-26T21:57:51.606Z,12.49
2018-04-26T22:00:25.602Z,12.34
2018-04-26T22:02:53.348Z,12.26
2018-04-26T22:05:27.527Z,12.07
2018-04-26T22:07:55.810Z,11.97
2018-04-26T22:10:24.067Z,11.95
2018-04-26T22:12:52.365Z,11.56
2018-04-26T22:15:20.707Z,11.37
2018-04-26T22:17:49.925Z,11.44
2018-04-26T22:20:18.176Z,11.53
2018-04-26T22:22:46.490Z,11.52
2018-04-26T22:25:14.760Z,11.55
2018-04-26T22:27:43.107Z,11.53
2018-04-26T22:30:11.465Z,11.70
2018-04-26T22:32:39.743Z,11.82
2018-04-26T22:35:07.995Z,11.81
2018-04-26T22:37:36.278Z,11.72
2018-04-26T22:40:04.546Z,11.67
2018-04-26T22:42:33.388Z,11.68
2018-04-26T22:45:01.722Z,11.59
2018-04-26T22:47:29.983Z,11.50
2018-04-26T22:49:58.493Z,11.52
2018-04-26T22:52:26.718Z,11.50
2018-04-26T22:54:54.980Z,11.48
2018-04-26T22:57:23.493Z,11.39
2018-04-26T22:59:51.750Z,11.49
2018-04-26T23:02:20.027Z,11.46
2018-04-26T23:04:49.065Z,11.48
2018-04-26T23:07:17.378Z,11.37
2018-04-26T23:09:45.754Z,11.33
2018-04-26T23:12:14.066Z,11.14
2018-04-26T23:14:42.335Z,11.16
2018-04-26T23:17:10.640Z,11.21
2018-04-26T23:19:38.946Z,11.08
2018-04-26T23:22:07.228Z,11.14
2018-04-26T23:24:35.474Z,10.90
2018-04-26T23:27:03.809Z,10.88
2018-04-26T23:29:32.160Z,10.76
2018-04-26T23:32:00.461Z,10.90
2018-04-26T23:34:28.708Z,10.76
2018-04-26T23:36:56.999Z,10.69
2018-04-26T23:39:25.311Z,10.69
2018-04-26T23:41:53.598Z,10.82
2018-04-26T23:44:21.866Z,10.91
2018-04-26T23:46:50.143Z,11.02
2018-04-26T23:49:18.421Z,11.15
2018-04-26T23:51:46.718Z,11.03
2018-04-26T23:54:15.007Z,11.12
2018-04-26T23:56:43.351Z,11.03
2018-04-26T23:59:11.585Z,10.87
